sensor_id;sensor_type;location;lat;lon;timestamp;P1;durP1;ratioP1;P2;durP2;ratioP2
51438;SDS011;38816;51.142;-0.974;2022-10-16T00:01:50;31.63;;;3.53;;
51438;SDS011;38816;51.142;-0.974;2022-10-16T00:04:16;19.33;;;2.80;;
51438;SDS011;38816;51.142;-0.974;2022-10-16T00:06:41;39.25;;;3.92;;
51438;SDS011;38816;51.142;-0.974;2022-10-16T00:09:07;23.58;;;2.53;;
51438;SDS011;38816;51.142;-0.974;2022-10-16T00:11:33;24.70;;;3.38;;
51438;SDS011;38816;51.142;-0.974;2022-10-16T00:14:05;36.25;;;3.13;;
51438;SDS011;38816;51.142;-0.974;2022-10-16T00:16:36;29.25;;;3.40;;
51438;SDS011;38816;51.142;-0.974;2022-10-16T00:19:01;28.00;;;3.95;;
51438;SDS011;38816;51.142;-0.974;2022-10-16T00:21:28;21.52;;;2.95;;
51438;SDS011;38816;51.142;-0.974;2022-10-16T00:23:56;26.65;;;2.70;;
51438;SDS011;38816;51.142;-0.974;2022-10-16T00:26:30;22.23;;;2.95;;
51438;SDS011;38816;51.142;-0.974;2022-10-16T00:28:57;26.95;;;2.60;;
51438;SDS011;38816;51.142;-0.974;2022-10-16T00:31:22;34.03;;;3.20;;
51438;SDS011;38816;51.142;-0.974;2022-10-16T00:33:48;26.55;;;3.42;;
51438;SDS011;38816;51.142;-0.974;2022-10-16T00:36:15;25.50;;;2.72;;
51438;SDS011;38816;51.142;-0.974;2022-10-16T00:38:43;23.63;;;3.13;;
51438;SDS011;38816;51.142;-0.974;2022-10-16T00:41:10;23.98;;;2.50;;
51438;SDS011;38816;51.142;-0.974;2022-10-16T00:43:45;30.63;;;4.05;;
51438;SDS011;38816;51.142;-0.974;2022-10-16T00:48:41;32.80;;;3.20;;
51438;SDS011;38816;51.142;-0.974;2022-10-16T00:51:13;32.40;;;3.70;;
51438;SDS011;38816;51.142;-0.974;2022-10-16T00:53:39;33.15;;;3.20;;
51438;SDS011;38816;51.142;-0.974;2022-10-16T00:56:05;31.67;;;2.80;;
51438;SDS011;38816;51.142;-0.974;2022-10-16T00:58:31;26.33;;;3.13;;
51438;SDS011;38816;51.142;-0.974;2022-10-16T01:00:56;23.17;;;3.88;;
51438;SDS011;38816;51.142;-0.974;2022-10-16T01:03:32;31.52;;;3.38;;
51438;SDS011;38816;51.142;-0.974;2022-10-16T01:06:02;30.10;;;2.60;;
51438;SDS011;38816;51.142;-0.974;2022-10-16T01:08:49;15.68;;;2.78;;
51438;SDS011;38816;51.142;-0.974;2022-10-16T01:17:32;20.05;;;3.13;;
51438;SDS011;38816;51.142;-0.974;2022-10-16T01:20:26;13.48;;;2.17;;
51438;SDS011;38816;51.142;-0.974;2022-10-16T01:26:13;20.48;;;2.30;;
51438;SDS011;38816;51.142;-0.974;2022-10-16T01:28:51;18.90;;;2.22;;
51438;SDS011;38816;51.142;-0.974;2022-10-16T01:31:19;17.73;;;3.03;;
51438;SDS011;38816;51.142;-0.974;2022-10-16T01:33:56;14.82;;;2.08;;
51438;SDS011;38816;51.142;-0.974;2022-10-16T01:36:26;17.50;;;1.90;;
51438;SDS011;38816;51.142;-0.974;2022-10-16T01:39:00;18.77;;;2.88;;
51438;SDS011;38816;51.142;-0.974;2022-10-16T01:41:35;19.75;;;2.05;;
51438;SDS011;38816;51.142;-0.974;2022-10-16T01:44:06;21.40;;;2.25;;
51438;SDS011;38816;51.142;-0.974;2022-10-16T01:46:36;24.35;;;2.33;;
51438;SDS011;38816;51.142;-0.974;2022-10-16T01:49:04;16.63;;;2.10;;
51438;SDS011;38816;51.142;-0.974;2022-10-16T01:51:31;21.42;;;2.00;;
51438;SDS011;38816;51.142;-0.974;2022-10-16T01:53:58;20.52;;;2.53;;
51438;SDS011;38816;51.142;-0.974;2022-10-16T01:56:26;15.48;;;2.13;;
51438;SDS011;38816;51.142;-0.974;2022-10-16T01:58:55;12.32;;;1.88;;
51438;SDS011;38816;51.142;-0.974;2022-10-16T02:01:26;16.00;;;1.83;;
51438;SDS011;38816;51.142;-0.974;2022-10-16T02:03:55;18.83;;;1.88;;
51438;SDS011;38816;51.142;-0.974;2022-10-16T02:06:23;17.05;;;1.52;;
51438;SDS011;38816;51.142;-0.974;2022-10-16T02:08:50;16.90;;;1.92;;
51438;SDS011;38816;51.142;-0.974;2022-10-16T02:11:15;17.20;;;2.08;;
51438;SDS011;38816;51.142;-0.974;2022-10-16T02:13:44;14.80;;;2.05;;
51438;SDS011;38816;51.142;-0.974;2022-10-16T02:16:13;16.58;;;2.03;;
51438;SDS011;38816;51.142;-0.974;2022-10-16T02:18:39;20.08;;;2.40;;
51438;SDS011;38816;51.142;-0.974;2022-10-16T02:21:23;19.48;;;2.00;;
51438;SDS011;38816;51.142;-0.974;2022-10-16T02:26:28;17.30;;;2.58;;
51438;SDS011;38816;51.142;-0.974;2022-10-16T02:29:00;18.00;;;2.85;;
51438;SDS011;38816;51.142;-0.974;2022-10-16T02:31:31;17.75;;;2.00;;
51438;SDS011;38816;51.142;-0.974;2022-10-16T02:34:00;19.70;;;2.13;;
51438;SDS011;38816;51.142;-0.974;2022-10-16T02:36:29;17.15;;;1.95;;
51438;SDS011;38816;51.142;-0.974;2022-10-16T02:38:56;23.45;;;2.10;;
51438;SDS011;38816;51.142;-0.974;2022-10-16T02:41:24;21.20;;;2.25;;
51438;SDS011;38816;51.142;-0.974;2022-10-16T02:43:49;32.58;;;2.70;;
51438;SDS011;38816;51.142;-0.974;2022-10-16T02:46:15;16.05;;;1.75;;
51438;SDS011;38816;51.142;-0.974;2022-10-16T02:48:42;18.70;;;2.00;;
51438;SDS011;38816;51.142;-0.974;2022-10-16T02:51:07;21.13;;;2.35;;
51438;SDS011;38816;51.142;-0.974;2022-10-16T02:53:33;27.42;;;3.15;;
51438;SDS011;38816;51.142;-0.974;2022-10-16T02:55:58;26.88;;;2.10;;
51438;SDS011;38816;51.142;-0.974;2022-10-16T02:58:24;24.77;;;2.83;;
51438;SDS011;38816;51.142;-0.974;2022-10-16T03:00:49;35.13;;;2.58;;
51438;SDS011;38816;51.142;-0.974;2022-10-16T03:03:14;27.60;;;2.85;;
51438;SDS011;38816;51.142;-0.974;2022-10-16T03:05:40;26.70;;;2.50;;
51438;SDS011;38816;51.142;-0.974;2022-10-16T03:08:05;22.25;;;2.38;;
51438;SDS011;38816;51.142;-0.974;2022-10-16T03:10:30;24.55;;;2.17;;
51438;SDS011;38816;51.142;-0.974;2022-10-16T03:12:56;30.77;;;2.30;;
51438;SDS011;38816;51.142;-0.974;2022-10-16T03:15:21;20.45;;;2.22;;
51438;SDS011;38816;51.142;-0.974;2022-10-16T03:17:46;29.45;;;3.38;;
51438;SDS011;38816;51.142;-0.974;2022-10-16T03:20:12;25.60;;;2.45;;
51438;SDS011;38816;51.142;-0.974;2022-10-16T03:22:37;26.25;;;2.47;;
51438;SDS011;38816;51.142;-0.974;2022-10-16T03:25:03;24.88;;;2.35;;
51438;SDS011;38816;51.142;-0.974;2022-10-16T03:27:29;29.00;;;2.58;;
51438;SDS011;38816;51.142;-0.974;2022-10-16T03:29:54;34.03;;;2.38;;
51438;SDS011;38816;51.142;-0.974;2022-10-16T03:32:19;17.83;;;2.22;;
51438;SDS011;38816;51.142;-0.974;2022-10-16T03:34:45;28.98;;;2.42;;
51438;SDS011;38816;51.142;-0.974;2022-10-16T03:37:10;33.38;;;2.53;;
51438;SDS011;38816;51.142;-0.974;2022-10-16T03:39:36;31.52;;;2.75;;
51438;SDS011;38816;51.142;-0.974;2022-10-16T03:42:01;31.20;;;2.80;;
51438;SDS011;38816;51.142;-0.974;2022-10-16T03:44:27;21.65;;;2.15;;
51438;SDS011;38816;51.142;-0.974;2022-10-16T03:46:53;27.48;;;2.85;;
51438;SDS011;38816;51.142;-0.974;2022-10-16T03:49:18;41.00;;;2.72;;
51438;SDS011;38816;51.142;-0.974;2022-10-16T03:51:43;25.10;;;2.50;;
51438;SDS011;38816;51.142;-0.974;2022-10-16T03:54:09;25.08;;;2.25;;
51438;SDS011;38816;51.142;-0.974;2022-10-16T03:56:35;34.88;;;2.78;;
51438;SDS011;38816;51.142;-0.974;2022-10-16T03:59:00;21.73;;;2.20;;
51438;SDS011;38816;51.142;-0.974;2022-10-16T04:04:12;19.70;;;2.70;;
51438;SDS011;38816;51.142;-0.974;2022-10-16T04:06:38;30.80;;;3.10;;
51438;SDS011;38816;51.142;-0.974;2022-10-16T04:09:04;26.75;;;2.47;;
51438;SDS011;38816;51.142;-0.974;2022-10-16T04:11:29;25.55;;;2.10;;
51438;SDS011;38816;51.142;-0.974;2022-10-16T04:13:55;39.00;;;3.72;;
51438;SDS011;38816;51.142;-0.974;2022-10-16T04:16:20;22.55;;;2.28;;
51438;SDS011;38816;51.142;-0.974;2022-10-16T04:18:45;23.08;;;2.25;;
51438;SDS011;38816;51.142;-0.974;2022-10-16T04:21:11;28.63;;;2.22;;
51438;SDS011;38816;51.142;-0.974;2022-10-16T04:23:36;27.08;;;2.45;;
51438;SDS011;38816;51.142;-0.974;2022-10-16T04:26:02;32.03;;;2.83;;
51438;SDS011;38816;51.142;-0.974;2022-10-16T04:28:27;38.55;;;2.78;;
51438;SDS011;38816;51.142;-0.974;2022-10-16T04:30:53;26.80;;;2.67;;
51438;SDS011;38816;51.142;-0.974;2022-10-16T04:33:18;25.65;;;3.15;;
51438;SDS011;38816;51.142;-0.974;2022-10-16T04:35:44;35.85;;;2.75;;
51438;SDS011;38816;51.142;-0.974;2022-10-16T04:38:09;29.23;;;2.40;;
51438;SDS011;38816;51.142;-0.974;2022-10-16T04:40:35;31.92;;;2.72;;
51438;SDS011;38816;51.142;-0.974;2022-10-16T04:43:04;25.50;;;3.08;;
51438;SDS011;38816;51.142;-0.974;2022-10-16T04:45:30;22.70;;;2.85;;
51438;SDS011;38816;51.142;-0.974;2022-10-16T04:47:58;26.75;;;2.78;;
51438;SDS011;38816;51.142;-0.974;2022-10-16T04:50:24;26.90;;;2.55;;
51438;SDS011;38816;51.142;-0.974;2022-10-16T04:52:50;29.80;;;2.75;;
51438;SDS011;38816;51.142;-0.974;2022-10-16T04:55:15;30.73;;;2.45;;
51438;SDS011;38816;51.142;-0.974;2022-10-16T04:57:41;31.48;;;2.45;;
51438;SDS011;38816;51.142;-0.974;2022-10-16T05:00:06;27.42;;;3.20;;
51438;SDS011;38816;51.142;-0.974;2022-10-16T05:02:33;18.33;;;2.40;;
51438;SDS011;38816;51.142;-0.974;2022-10-16T05:04:58;30.85;;;2.78;;
51438;SDS011;38816;51.142;-0.974;2022-10-16T05:07:24;28.73;;;2.95;;
51438;SDS011;38816;51.142;-0.974;2022-10-16T05:09:49;30.10;;;2.45;;
51438;SDS011;38816;51.142;-0.974;2022-10-16T05:12:14;24.48;;;2.53;;
51438;SDS011;38816;51.142;-0.974;2022-10-16T05:14:40;40.47;;;4.40;;
51438;SDS011;38816;51.142;-0.974;2022-10-16T05:17:05;27.25;;;2.45;;
51438;SDS011;38816;51.142;-0.974;2022-10-16T05:19:31;28.67;;;2.90;;
51438;SDS011;38816;51.142;-0.974;2022-10-16T05:21:56;34.83;;;2.83;;
51438;SDS011;38816;51.142;-0.974;2022-10-16T05:24:22;34.47;;;2.47;;
51438;SDS011;38816;51.142;-0.974;2022-10-16T05:26:47;31.98;;;2.95;;
51438;SDS011;38816;51.142;-0.974;2022-10-16T05:29:13;33.42;;;2.95;;
51438;SDS011;38816;51.142;-0.974;2022-10-16T05:31:39;24.63;;;2.65;;
51438;SDS011;38816;51.142;-0.974;2022-10-16T05:34:04;27.15;;;2.75;;
51438;SDS011;38816;51.142;-0.974;2022-10-16T05:36:29;27.88;;;2.25;;
51438;SDS011;38816;51.142;-0.974;2022-10-16T05:38:55;29.60;;;2.85;;
51438;SDS011;38816;51.142;-0.974;2022-10-16T05:41:20;47.97;;;3.47;;
51438;SDS011;38816;51.142;-0.974;2022-10-16T05:43:49;27.48;;;2.42;;
51438;SDS011;38816;51.142;-0.974;2022-10-16T05:46:14;25.65;;;2.78;;
51438;SDS011;38816;51.142;-0.974;2022-10-16T05:48:41;33.15;;;2.50;;
51438;SDS011;38816;51.142;-0.974;2022-10-16T05:51:07;31.77;;;2.50;;
51438;SDS011;38816;51.142;-0.974;2022-10-16T05:53:35;20.02;;;2.30;;
51438;SDS011;38816;51.142;-0.974;2022-10-16T05:56:02;26.90;;;2.28;;
51438;SDS011;38816;51.142;-0.974;2022-10-16T05:58:29;30.13;;;2.47;;
51438;SDS011;38816;51.142;-0.974;2022-10-16T06:01:02;19.60;;;2.30;;
51438;SDS011;38816;51.142;-0.974;2022-10-16T06:03:29;31.63;;;2.45;;
51438;SDS011;38816;51.142;-0.974;2022-10-16T06:05:55;27.80;;;1.98;;
51438;SDS011;38816;51.142;-0.974;2022-10-16T06:08:21;32.47;;;2.67;;
51438;SDS011;38816;51.142;-0.974;2022-10-16T06:10:48;22.85;;;2.28;;
51438;SDS011;38816;51.142;-0.974;2022-10-16T06:13:14;38.80;;;2.50;;
51438;SDS011;38816;51.142;-0.974;2022-10-16T06:15:40;16.50;;;2.30;;
51438;SDS011;38816;51.142;-0.974;2022-10-16T06:18:07;25.38;;;2.80;;
51438;SDS011;38816;51.142;-0.974;2022-10-16T06:20:35;26.83;;;2.50;;
51438;SDS011;38816;51.142;-0.974;2022-10-16T06:23:02;21.48;;;2.33;;
51438;SDS011;38816;51.142;-0.974;2022-10-16T06:25:29;31.92;;;2.47;;
51438;SDS011;38816;51.142;-0.974;2022-10-16T06:27:55;25.15;;;2.40;;
51438;SDS011;38816;51.142;-0.974;2022-10-16T06:30:20;26.50;;;2.17;;
51438;SDS011;38816;51.142;-0.974;2022-10-16T06:32:45;28.60;;;2.20;;
51438;SDS011;38816;51.142;-0.974;2022-10-16T06:35:11;29.48;;;2.65;;
51438;SDS011;38816;51.142;-0.974;2022-10-16T06:37:36;22.02;;;2.08;;
51438;SDS011;38816;51.142;-0.974;2022-10-16T06:40:02;30.58;;;2.40;;
51438;SDS011;38816;51.142;-0.974;2022-10-16T06:42:29;24.20;;;2.20;;
51438;SDS011;38816;51.142;-0.974;2022-10-16T06:44:54;18.27;;;2.17;;
51438;SDS011;38816;51.142;-0.974;2022-10-16T06:47:20;20.33;;;2.15;;
51438;SDS011;38816;51.142;-0.974;2022-10-16T06:49:45;28.23;;;3.15;;
51438;SDS011;38816;51.142;-0.974;2022-10-16T06:52:10;22.48;;;2.42;;
51438;SDS011;38816;51.142;-0.974;2022-10-16T06:54:36;17.75;;;2.97;;
51438;SDS011;38816;51.142;-0.974;2022-10-16T06:57:01;24.60;;;2.50;;
51438;SDS011;38816;51.142;-0.974;2022-10-16T06:59:27;24.60;;;2.15;;
51438;SDS011;38816;51.142;-0.974;2022-10-16T07:01:52;21.25;;;2.17;;
51438;SDS011;38816;51.142;-0.974;2022-10-16T07:04:18;24.55;;;1.85;;
51438;SDS011;38816;51.142;-0.974;2022-10-16T07:06:43;17.08;;;1.90;;
51438;SDS011;38816;51.142;-0.974;2022-10-16T07:09:09;25.92;;;2.47;;
51438;SDS011;38816;51.142;-0.974;2022-10-16T07:11:36;40.05;;;2.25;;
51438;SDS011;38816;51.142;-0.974;2022-10-16T07:14:03;19.48;;;2.58;;
51438;SDS011;38816;51.142;-0.974;2022-10-16T07:16:29;35.63;;;2.80;;
51438;SDS011;38816;51.142;-0.974;2022-10-16T07:18:58;18.50;;;1.80;;
51438;SDS011;38816;51.142;-0.974;2022-10-16T07:21:27;26.08;;;2.25;;
51438;SDS011;38816;51.142;-0.974;2022-10-16T07:23:57;27.75;;;2.72;;
51438;SDS011;38816;51.142;-0.974;2022-10-16T07:26:24;30.40;;;2.40;;
51438;SDS011;38816;51.142;-0.974;2022-10-16T07:28:52;32.63;;;2.55;;
51438;SDS011;38816;51.142;-0.974;2022-10-16T07:31:18;29.88;;;2.38;;
51438;SDS011;38816;51.142;-0.974;2022-10-16T07:33:45;25.65;;;2.15;;
51438;SDS011;38816;51.142;-0.974;2022-10-16T07:36:13;22.15;;;2.33;;
51438;SDS011;38816;51.142;-0.974;2022-10-16T07:38:39;35.13;;;2.85;;
51438;SDS011;38816;51.142;-0.974;2022-10-16T07:41:05;26.83;;;2.40;;
51438;SDS011;38816;51.142;-0.974;2022-10-16T07:43:32;21.58;;;2.80;;
51438;SDS011;38816;51.142;-0.974;2022-10-16T07:45:58;28.52;;;2.35;;
51438;SDS011;38816;51.142;-0.974;2022-10-16T07:48:26;28.25;;;2.63;;
51438;SDS011;38816;51.142;-0.974;2022-10-16T07:50:56;28.38;;;2.83;;
51438;SDS011;38816;51.142;-0.974;2022-10-16T07:53:23;33.33;;;3.38;;
51438;SDS011;38816;51.142;-0.974;2022-10-16T07:55:48;38.25;;;2.33;;
51438;SDS011;38816;51.142;-0.974;2022-10-16T07:58:13;29.38;;;2.42;;
51438;SDS011;38816;51.142;-0.974;2022-10-16T08:00:39;47.35;;;3.55;;
51438;SDS011;38816;51.142;-0.974;2022-10-16T08:03:04;30.55;;;3.25;;
51438;SDS011;38816;51.142;-0.974;2022-10-16T08:05:30;30.88;;;2.75;;
51438;SDS011;38816;51.142;-0.974;2022-10-16T08:07:57;29.58;;;3.70;;
51438;SDS011;38816;51.142;-0.974;2022-10-16T08:10:23;38.47;;;3.08;;
51438;SDS011;38816;51.142;-0.974;2022-10-16T08:12:51;26.55;;;2.72;;
51438;SDS011;38816;51.142;-0.974;2022-10-16T08:15:17;19.08;;;2.42;;
51438;SDS011;38816;51.142;-0.974;2022-10-16T08:17:43;41.72;;;3.58;;
51438;SDS011;38816;51.142;-0.974;2022-10-16T08:20:08;26.85;;;2.50;;
51438;SDS011;38816;51.142;-0.974;2022-10-16T08:22:35;25.10;;;2.85;;
51438;SDS011;38816;51.142;-0.974;2022-10-16T08:25:00;42.00;;;3.65;;
51438;SDS011;38816;51.142;-0.974;2022-10-16T08:27:30;35.17;;;3.28;;
51438;SDS011;38816;51.142;-0.974;2022-10-16T08:29:56;32.40;;;3.80;;
51438;SDS011;38816;51.142;-0.974;2022-10-16T08:32:22;31.10;;;2.92;;
51438;SDS011;38816;51.142;-0.974;2022-10-16T08:34:47;30.92;;;3.17;;
51438;SDS011;38816;51.142;-0.974;2022-10-16T08:37:13;31.15;;;3.00;;
51438;SDS011;38816;51.142;-0.974;2022-10-16T08:39:38;42.92;;;3.35;;
51438;SDS011;38816;51.142;-0.974;2022-10-16T08:42:11;26.35;;;2.95;;
51438;SDS011;38816;51.142;-0.974;2022-10-16T08:50:02;37.13;;;3.50;;
51438;SDS011;38816;51.142;-0.974;2022-10-16T08:52:35;36.28;;;3.30;;
51438;SDS011;38816;51.142;-0.974;2022-10-16T08:55:08;26.42;;;2.95;;
51438;SDS011;38816;51.142;-0.974;2022-10-16T08:57:48;26.38;;;3.00;;
51438;SDS011;38816;51.142;-0.974;2022-10-16T09:00:14;26.73;;;2.47;;
51438;SDS011;38816;51.142;-0.974;2022-10-16T09:02:52;31.85;;;2.42;;
51438;SDS011;38816;51.142;-0.974;2022-10-16T09:08:37;31.55;;;2.95;;
51438;SDS011;38816;51.142;-0.974;2022-10-16T09:16:56;27.27;;;2.97;;
51438;SDS011;38816;51.142;-0.974;2022-10-16T09:19:46;37.35;;;4.45;;
51438;SDS011;38816;51.142;-0.974;2022-10-16T09:22:25;33.58;;;2.97;;
51438;SDS011;38816;51.142;-0.974;2022-10-16T09:24:54;30.83;;;2.85;;
51438;SDS011;38816;51.142;-0.974;2022-10-16T09:27:24;26.83;;;3.20;;
51438;SDS011;38816;51.142;-0.974;2022-10-16T09:29:51;27.00;;;2.65;;
51438;SDS011;38816;51.142;-0.974;2022-10-16T09:32:18;33.60;;;2.88;;
51438;SDS011;38816;51.142;-0.974;2022-10-16T09:34:47;24.73;;;2.97;;
51438;SDS011;38816;51.142;-0.974;2022-10-16T09:37:17;22.95;;;2.60;;
51438;SDS011;38816;51.142;-0.974;2022-10-16T09:39:45;31.90;;;3.88;;
51438;SDS011;38816;51.142;-0.974;2022-10-16T09:42:13;32.55;;;2.70;;
51438;SDS011;38816;51.142;-0.974;2022-10-16T09:44:41;36.22;;;3.25;;
51438;SDS011;38816;51.142;-0.974;2022-10-16T09:47:14;25.85;;;2.65;;
51438;SDS011;38816;51.142;-0.974;2022-10-16T09:49:52;27.17;;;2.70;;
51438;SDS011;38816;51.142;-0.974;2022-10-16T09:52:20;30.33;;;2.45;;
51438;SDS011;38816;51.142;-0.974;2022-10-16T09:54:49;26.60;;;2.90;;
51438;SDS011;38816;51.142;-0.974;2022-10-16T09:57:37;35.72;;;2.88;;
51438;SDS011;38816;51.142;-0.974;2022-10-16T10:00:15;35.95;;;2.65;;
51438;SDS011;38816;51.142;-0.974;2022-10-16T10:02:42;26.88;;;2.67;;
51438;SDS011;38816;51.142;-0.974;2022-10-16T10:05:20;28.52;;;2.72;;
51438;SDS011;38816;51.142;-0.974;2022-10-16T10:07:53;36.30;;;3.17;;
51438;SDS011;38816;51.142;-0.974;2022-10-16T10:10:22;32.78;;;2.92;;
51438;SDS011;38816;51.142;-0.974;2022-10-16T10:12:55;23.45;;;2.50;;
51438;SDS011;38816;51.142;-0.974;2022-10-16T10:15:22;31.30;;;2.58;;
51438;SDS011;38816;51.142;-0.974;2022-10-16T10:22:52;28.27;;;2.40;;
51438;SDS011;38816;51.142;-0.974;2022-10-16T10:31:43;37.00;;;3.22;;
51438;SDS011;38816;51.142;-0.974;2022-10-16T10:36:41;29.77;;;3.67;;
51438;SDS011;38816;51.142;-0.974;2022-10-16T10:42:34;36.70;;;3.35;;
51438;SDS011;38816;51.142;-0.974;2022-10-16T10:45:15;22.08;;;2.33;;
51438;SDS011;38816;51.142;-0.974;2022-10-16T10:48:11;27.15;;;2.60;;
51438;SDS011;38816;51.142;-0.974;2022-10-16T10:53:59;19.45;;;2.40;;
51438;SDS011;38816;51.142;-0.974;2022-10-16T11:00:06;17.40;;;2.00;;
51438;SDS011;38816;51.142;-0.974;2022-10-16T11:02:37;20.30;;;2.38;;
51438;SDS011;38816;51.142;-0.974;2022-10-16T11:08:17;19.00;;;2.13;;
51438;SDS011;38816;51.142;-0.974;2022-10-16T11:10:52;15.40;;;1.92;;
51438;SDS011;38816;51.142;-0.974;2022-10-16T11:15:48;18.83;;;2.00;;
51438;SDS011;38816;51.142;-0.974;2022-10-16T11:18:23;14.95;;;2.30;;
51438;SDS011;38816;51.142;-0.974;2022-10-16T11:20:57;21.85;;;2.78;;
51438;SDS011;38816;51.142;-0.974;2022-10-16T11:23:28;18.92;;;2.63;;
51438;SDS011;38816;51.142;-0.974;2022-10-16T11:26:02;16.92;;;1.95;;
51438;SDS011;38816;51.142;-0.974;2022-10-16T11:28:34;17.50;;;2.25;;
51438;SDS011;38816;51.142;-0.974;2022-10-16T11:31:12;30.13;;;2.63;;
51438;SDS011;38816;51.142;-0.974;2022-10-16T11:33:47;21.88;;;2.65;;
51438;SDS011;38816;51.142;-0.974;2022-10-16T11:38:52;25.65;;;2.20;;
51438;SDS011;38816;51.142;-0.974;2022-10-16T11:44:37;23.95;;;2.22;;
51438;SDS011;38816;51.142;-0.974;2022-10-16T11:50:00;16.88;;;2.88;;
51438;SDS011;38816;51.142;-0.974;2022-10-16T11:55:26;18.45;;;2.70;;
51438;SDS011;38816;51.142;-0.974;2022-10-16T11:57:59;18.73;;;2.53;;
51438;SDS011;38816;51.142;-0.974;2022-10-16T12:01:13;13.93;;;2.08;;
51438;SDS011;38816;51.142;-0.974;2022-10-16T12:09:03;19.52;;;2.20;;
51438;SDS011;38816;51.142;-0.974;2022-10-16T12:11:36;9.60;;;1.73;;
51438;SDS011;38816;51.142;-0.974;2022-10-16T12:14:07;7.65;;;1.85;;
51438;SDS011;38816;51.142;-0.974;2022-10-16T12:16:37;14.60;;;2.42;;
51438;SDS011;38816;51.142;-0.974;2022-10-16T12:19:14;16.73;;;2.60;;
51438;SDS011;38816;51.142;-0.974;2022-10-16T12:21:41;15.23;;;3.00;;
51438;SDS011;38816;51.142;-0.974;2022-10-16T12:24:19;13.82;;;1.88;;
51438;SDS011;38816;51.142;-0.974;2022-10-16T12:26:47;12.85;;;1.65;;
51438;SDS011;38816;51.142;-0.974;2022-10-16T12:32:22;8.95;;;1.75;;
51438;SDS011;38816;51.142;-0.974;2022-10-16T12:35:00;17.33;;;2.33;;
51438;SDS011;38816;51.142;-0.974;2022-10-16T12:37:28;9.40;;;1.77;;
51438;SDS011;38816;51.142;-0.974;2022-10-16T12:39:55;11.65;;;2.15;;
51438;SDS011;38816;51.142;-0.974;2022-10-16T12:42:23;9.68;;;1.80;;
51438;SDS011;38816;51.142;-0.974;2022-10-16T12:44:52;17.95;;;2.33;;
51438;SDS011;38816;51.142;-0.974;2022-10-16T12:47:35;8.43;;;1.88;;
51438;SDS011;38816;51.142;-0.974;2022-10-16T12:50:03;13.38;;;2.20;;
51438;SDS011;38816;51.142;-0.974;2022-10-16T12:52:47;11.68;;;1.70;;
51438;SDS011;38816;51.142;-0.974;2022-10-16T12:55:16;12.90;;;1.85;;
51438;SDS011;38816;51.142;-0.974;2022-10-16T13:00:23;9.52;;;1.67;;
51438;SDS011;38816;51.142;-0.974;2022-10-16T13:06:06;14.25;;;1.80;;
51438;SDS011;38816;51.142;-0.974;2022-10-16T13:17:25;9.40;;;1.95;;
51438;SDS011;38816;51.142;-0.974;2022-10-16T13:28:29;10.82;;;1.83;;
51438;SDS011;38816;51.142;-0.974;2022-10-16T13:30:58;15.75;;;2.05;;
51438;SDS011;38816;51.142;-0.974;2022-10-16T13:36:00;15.10;;;2.70;;
51438;SDS011;38816;51.142;-0.974;2022-10-16T13:38:27;15.38;;;2.28;;
51438;SDS011;38816;51.142;-0.974;2022-10-16T13:40:59;13.40;;;2.42;;
51438;SDS011;38816;51.142;-0.974;2022-10-16T13:43:31;13.88;;;1.85;;
51438;SDS011;38816;51.142;-0.974;2022-10-16T13:46:01;16.88;;;2.10;;
51438;SDS011;38816;51.142;-0.974;2022-10-16T13:48:29;17.10;;;2.22;;
51438;SDS011;38816;51.142;-0.974;2022-10-16T13:51:02;17.23;;;2.25;;
51438;SDS011;38816;51.142;-0.974;2022-10-16T13:53:35;11.40;;;1.90;;
51438;SDS011;38816;51.142;-0.974;2022-10-16T13:56:04;13.43;;;1.88;;
51438;SDS011;38816;51.142;-0.974;2022-10-16T13:58:32;15.15;;;1.90;;
51438;SDS011;38816;51.142;-0.974;2022-10-16T14:00:58;10.85;;;1.60;;
51438;SDS011;38816;51.142;-0.974;2022-10-16T14:03:26;16.05;;;2.63;;
51438;SDS011;38816;51.142;-0.974;2022-10-16T14:05:54;14.25;;;1.90;;
51438;SDS011;38816;51.142;-0.974;2022-10-16T14:08:22;12.25;;;2.20;;
51438;SDS011;38816;51.142;-0.974;2022-10-16T14:10:50;8.18;;;1.73;;
51438;SDS011;38816;51.142;-0.974;2022-10-16T14:13:18;13.98;;;2.10;;
51438;SDS011;38816;51.142;-0.974;2022-10-16T14:15:49;15.63;;;2.20;;
51438;SDS011;38816;51.142;-0.974;2022-10-16T14:18:18;15.35;;;2.25;;
51438;SDS011;38816;51.142;-0.974;2022-10-16T14:20:46;14.45;;;2.30;;
51438;SDS011;38816;51.142;-0.974;2022-10-16T14:23:30;10.80;;;1.90;;
51438;SDS011;38816;51.142;-0.974;2022-10-16T14:28:33;20.83;;;2.63;;
51438;SDS011;38816;51.142;-0.974;2022-10-16T14:31:00;10.98;;;1.90;;
51438;SDS011;38816;51.142;-0.974;2022-10-16T14:35:59;9.40;;;1.92;;
51438;SDS011;38816;51.142;-0.974;2022-10-16T14:38:35;19.98;;;2.30;;
51438;SDS011;38816;51.142;-0.974;2022-10-16T14:41:03;15.02;;;2.38;;
51438;SDS011;38816;51.142;-0.974;2022-10-16T14:45:55;17.52;;;2.50;;
51438;SDS011;38816;51.142;-0.974;2022-10-16T14:48:21;11.98;;;2.17;;
51438;SDS011;38816;51.142;-0.974;2022-10-16T14:50:47;12.10;;;2.05;;
51438;SDS011;38816;51.142;-0.974;2022-10-16T14:53:13;15.02;;;2.22;;
51438;SDS011;38816;51.142;-0.974;2022-10-16T14:55:39;14.50;;;1.67;;
51438;SDS011;38816;51.142;-0.974;2022-10-16T14:58:07;16.25;;;2.80;;
51438;SDS011;38816;51.142;-0.974;2022-10-16T15:00:39;15.30;;;2.47;;
51438;SDS011;38816;51.142;-0.974;2022-10-16T15:03:05;14.55;;;2.90;;
51438;SDS011;38816;51.142;-0.974;2022-10-16T15:05:30;17.08;;;2.75;;
51438;SDS011;38816;51.142;-0.974;2022-10-16T15:07:57;18.95;;;3.13;;
51438;SDS011;38816;51.142;-0.974;2022-10-16T15:10:23;13.52;;;2.30;;
51438;SDS011;38816;51.142;-0.974;2022-10-16T15:12:50;13.73;;;2.28;;
51438;SDS011;38816;51.142;-0.974;2022-10-16T15:17:48;13.25;;;2.53;;
51438;SDS011;38816;51.142;-0.974;2022-10-16T15:20:24;15.68;;;2.20;;
51438;SDS011;38816;51.142;-0.974;2022-10-16T15:22:55;11.45;;;1.98;;
51438;SDS011;38816;51.142;-0.974;2022-10-16T15:27:56;12.98;;;2.28;;
51438;SDS011;38816;51.142;-0.974;2022-10-16T15:30:21;24.60;;;2.58;;
51438;SDS011;38816;51.142;-0.974;2022-10-16T15:32:47;15.57;;;2.15;;
51438;SDS011;38816;51.142;-0.974;2022-10-16T15:35:12;17.13;;;2.28;;
51438;SDS011;38816;51.142;-0.974;2022-10-16T15:37:38;14.38;;;2.40;;
51438;SDS011;38816;51.142;-0.974;2022-10-16T15:40:03;14.35;;;2.25;;
51438;SDS011;38816;51.142;-0.974;2022-10-16T15:42:29;12.80;;;2.22;;
51438;SDS011;38816;51.142;-0.974;2022-10-16T15:44:54;9.75;;;2.13;;
51438;SDS011;38816;51.142;-0.974;2022-10-16T15:47:19;15.20;;;2.03;;
51438;SDS011;38816;51.142;-0.974;2022-10-16T15:49:45;13.02;;;2.13;;
51438;SDS011;38816;51.142;-0.974;2022-10-16T15:52:10;13.00;;;1.70;;
51438;SDS011;38816;51.142;-0.974;2022-10-16T15:54:36;17.85;;;2.08;;
51438;SDS011;38816;51.142;-0.974;2022-10-16T15:57:02;7.95;;;1.92;;
51438;SDS011;38816;51.142;-0.974;2022-10-16T15:59:27;11.27;;;1.70;;
51438;SDS011;38816;51.142;-0.974;2022-10-16T16:01:52;11.57;;;1.80;;
51438;SDS011;38816;51.142;-0.974;2022-10-16T16:04:18;10.85;;;1.58;;
51438;SDS011;38816;51.142;-0.974;2022-10-16T16:06:43;11.35;;;1.65;;
51438;SDS011;38816;51.142;-0.974;2022-10-16T16:09:10;11.55;;;2.25;;
51438;SDS011;38816;51.142;-0.974;2022-10-16T16:11:36;13.60;;;1.70;;
51438;SDS011;38816;51.142;-0.974;2022-10-16T16:14:03;9.57;;;1.55;;
51438;SDS011;38816;51.142;-0.974;2022-10-16T16:16:32;17.27;;;2.60;;
51438;SDS011;38816;51.142;-0.974;2022-10-16T16:19:02;13.57;;;1.60;;
51438;SDS011;38816;51.142;-0.974;2022-10-16T16:21:29;12.52;;;1.90;;
51438;SDS011;38816;51.142;-0.974;2022-10-16T16:23:55;8.10;;;1.73;;
51438;SDS011;38816;51.142;-0.974;2022-10-16T16:26:24;12.40;;;1.50;;
51438;SDS011;38816;51.142;-0.974;2022-10-16T16:28:51;8.98;;;1.40;;